Time;durP1;ratioP1;P1;durP2;ratioP2;P2;SDS_P1;SDS_P2;PMS_P1;PMS_P2;Temp;Humidity;BMP_temperature;BMP_pressure;BME280_temperature;BME280_humidity;BME280_pressure;Samples;Min_cycle;Max_cycle;Signal;HPM_P1;HPM_P2
2023/03/15 00:00:06;;;;;;;1.98;1.88;;;10.60;58.30;;;;;;5094116;28;20484;-67
2023/03/15 00:02:32;;;;;;;2.10;2.00;;;10.60;58.30;;;;;;5094010;28;20119;-67
2023/03/15 00:04:57;;;;;;;2.17;2.08;;;10.60;58.30;;;;;;5075780;28;20063;-67
2023/03/15 00:07:24;;;;;;;2.38;2.17;;;10.60;58.30;;;;;;5094117;28;20024;-68
2023/03/15 00:09:51;;;;;;;2.22;2.03;;;10.60;58.30;;;;;;5092915;28;20032;-67
2023/03/15 00:12:17;;;;;;;2.40;2.20;;;10.60;58.40;;;;;;5093663;28;20365;-66
2023/03/15 00:14:43;;;;;;;2.42;2.22;;;10.60;58.30;;;;;;5093720;28;20028;-69
2023/03/15 00:17:10;;;;;;;2.40;2.20;;;10.60;58.30;;;;;;5075484;28;20031;-67
2023/03/15 00:19:36;;;;;;;2.30;2.10;;;10.60;58.30;;;;;;5093925;28;20043;-67
2023/03/15 00:22:02;;;;;;;2.30;2.20;;;10.60;58.40;;;;;;5093697;28;20036;-67
2023/03/15 00:24:27;;;;;;;3.33;2.20;;;10.60;58.30;;;;;;5094016;28;20035;-67
2023/03/15 00:26:53;;;;;;;2.63;2.30;;;10.60;58.40;;;;;;5093845;28;20031;-67
2023/03/15 00:29:19;;;;;;;2.83;2.20;;;10.60;58.40;;;;;;5075974;28;20039;-67
2023/03/15 00:31:44;;;;;;;2.83;2.30;;;10.60;58.30;;;;;;5075633;28;20498;-69
2023/03/15 00:34:12;;;;;;;3.20;2.13;;;10.60;58.30;;;;;;5093583;28;20044;-68
2023/03/15 00:36:42;;;;;;;2.45;2.25;;;10.60;58.40;;;;;;5093176;28;20020;-68
2023/03/15 00:39:08;;;;;;;2.88;2.53;;;10.60;58.40;;;;;;5093331;28;20032;-67
2023/03/15 00:41:33;;;;;;;2.33;2.13;;;10.60;58.40;;;;;;5075718;28;20035;-67
2023/03/15 00:43:59;;;;;;;2.45;2.22;;;10.60;58.40;;;;;;5093863;28;20040;-67
2023/03/15 00:46:24;;;;;;;2.90;2.45;;;10.60;58.40;;;;;;5093685;28;20024;-66
2023/03/15 00:48:51;;;;;;;2.85;2.30;;;10.50;58.40;;;;;;5093680;28;20425;-67
2023/03/15 00:51:20;;;;;;;2.40;2.20;;;10.60;58.40;;;;;;5075504;28;20385;-68
2023/03/15 00:53:47;;;;;;;2.58;2.30;;;10.50;58.40;;;;;;5075452;28;20024;-67
2023/03/15 00:56:19;;;;;;;2.60;2.40;;;10.60;58.50;;;;;;5075579;28;20388;-67
2023/03/15 00:58:45;;;;;;;2.60;2.40;;;10.50;58.40;;;;;;5093418;28;20106;-67
2023/03/15 01:01:14;;;;;;;2.70;2.30;;;10.50;58.40;;;;;;5075451;28;20040;-66
2023/03/15 01:03:40;;;;;;;2.70;2.45;;;10.50;58.40;;;;;;5093318;28;20024;-66
2023/03/15 01:06:15;;;;;;;2.97;2.60;;;10.50;58.40;;;;;;5075132;28;20024;-68
2023/03/15 01:08:42;;;;;;;2.70;2.50;;;10.50;58.40;;;;;;5075843;28;20377;-68
2023/03/15 01:11:23;;;;;;;4.40;2.40;;;10.50;58.40;;;;;;5075343;28;20028;-67
2023/03/15 01:13:50;;;;;;;2.63;2.40;;;10.50;58.40;;;;;;5075167;28;20469;-67
2023/03/15 01:16:15;;;;;;;2.80;2.60;;;10.50;58.40;;;;;;5092762;28;20035;-67
2023/03/15 01:18:41;;;;;;;2.70;2.40;;;10.50;58.40;;;;;;5092792;28;20020;-68
2023/03/15 01:21:09;;;;;;;2.58;2.22;;;10.50;58.50;;;;;;5075205;28;20394;-68
2023/03/15 01:23:35;;;;;;;3.28;2.40;;;10.50;58.40;;;;;;5093178;28;20388;-67
2023/03/15 01:26:02;;;;;;;3.30;2.30;;;10.50;58.50;;;;;;5093055;28;20020;-67
2023/03/15 01:28:27;;;;;;;2.58;2.33;;;10.50;58.50;;;;;;5095451;28;20020;-67
2023/03/15 01:30:53;;;;;;;2.50;2.20;;;10.50;58.50;;;;;;5078619;28;20051;-67
2023/03/15 01:33:20;;;;;;;2.67;2.47;;;10.50;58.50;;;;;;5096800;28;20047;-67
2023/03/15 01:35:46;;;;;;;2.60;2.40;;;10.50;58.50;;;;;;5079041;28;20028;-68
2023/03/15 01:38:12;;;;;;;3.42;2.80;;;10.50;58.50;;;;;;5096949;28;20064;-68
2023/03/15 01:40:44;;;;;;;2.97;2.50;;;10.50;58.50;;;;;;5078468;28;20024;-68
2023/03/15 01:43:21;;;;;;;3.10;2.55;;;10.50;58.50;;;;;;5096655;28;20067;-67
2023/03/15 01:46:24;;;;;;;2.85;2.65;;;10.50;58.50;;;;;;5096565;28;20028;-67
2023/03/15 01:49:16;;;;;;;2.70;2.40;;;10.50;58.60;;;;;;5095825;28;20411;-68
2023/03/15 01:52:07;;;;;;;2.50;2.30;;;10.50;58.50;;;;;;5095741;28;20028;-68
2023/03/15 01:54:52;;;;;;;2.78;2.28;;;10.50;58.40;;;;;;5095864;28;20032;-67
2023/03/15 01:57:28;;;;;;;3.13;2.60;;;10.50;58.50;;;;;;5096403;28;20444;-67
2023/03/15 02:00:04;;;;;;;2.92;2.25;;;10.50;58.50;;;;;;5096542;28;20028;-67
2023/03/15 02:02:30;;;;;;;3.38;2.80;;;10.40;58.40;;;;;;5078000;28;20035;-68
2023/03/15 02:05:08;;;;;;;3.47;2.50;;;10.40;58.50;;;;;;5096419;28;20030;-66
2023/03/15 02:07:35;;;;;;;2.60;2.20;;;10.40;58.50;;;;;;5078556;28;20051;-68
2023/03/15 02:10:11;;;;;;;2.88;2.33;;;10.40;58.50;;;;;;5096512;28;20036;-68
2023/03/15 02:12:41;;;;;;;3.35;2.30;;;10.40;58.50;;;;;;5077978;28;20024;-68
2023/03/15 02:15:08;;;;;;;2.88;2.53;;;10.40;58.50;;;;;;5078154;28;20028;-68
2023/03/15 02:17:39;;;;;;;3.17;2.40;;;10.40;58.50;;;;;;5078240;28;20028;-68
2023/03/15 02:20:30;;;;;;;2.92;2.45;;;10.40;58.50;;;;;;5095804;28;20084;-68
2023/03/15 02:23:05;;;;;;;3.03;2.28;;;10.40;58.50;;;;;;5096064;28;20028;-68
2023/03/15 02:25:55;;;;;;;2.50;2.30;;;10.40;58.50;;;;;;5078144;28;20031;-68
2023/03/15 02:28:21;;;;;;;2.95;2.30;;;10.40;58.50;;;;;;5077888;28;20032;-68
2023/03/15 02:30:47;;;;;;;3.08;2.22;;;10.40;58.50;;;;;;5095895;28;20036;-68
2023/03/15 02:33:47;;;;;;;3.03;2.45;;;10.30;58.40;;;;;;5095771;28;20059;-68
2023/03/15 02:36:16;;;;;;;3.40;2.50;;;10.40;58.50;;;;;;5095070;28;20044;-68
2023/03/15 02:38:42;;;;;;;3.17;2.50;;;10.40;58.60;;;;;;5095289;28;20326;-68
2023/03/15 02:41:08;;;;;;;3.13;2.50;;;10.40;58.50;;;;;;5077510;28;20031;-68
2023/03/15 02:43:35;;;;;;;2.60;2.40;;;10.40;58.60;;;;;;5095712;28;20034;-68
2023/03/15 02:46:02;;;;;;;2.65;2.45;;;10.40;58.50;;;;;;5095360;28;20077;-68
2023/03/15 02:48:29;;;;;;;2.50;2.30;;;10.30;58.50;;;;;;5077459;28;20051;-68
2023/03/15 02:50:55;;;;;;;2.42;2.22;;;10.30;58.50;;;;;;5095607;28;20024;-68
2023/03/15 02:53:21;;;;;;;3.15;2.60;;;10.30;58.60;;;;;;5095527;28;20420;-68
2023/03/15 02:55:46;;;;;;;2.55;2.33;;;10.30;58.60;;;;;;5095164;28;20024;-68
2023/03/15 02:58:12;;;;;;;2.67;2.47;;;10.30;58.60;;;;;;5095368;28;20362;-68
2023/03/15 03:00:38;;;;;;;2.60;2.40;;;10.30;58.60;;;;;;5095107;28;20036;-68
2023/03/15 03:03:04;;;;;;;2.50;2.30;;;10.30;58.50;;;;;;5095410;28;20457;-68
2023/03/15 03:05:29;;;;;;;2.78;2.50;;;10.30;58.60;;;;;;5095353;28;20020;-68
2023/03/15 03:07:55;;;;;;;2.95;2.58;;;10.30;58.60;;;;;;5077062;28;20024;-68
2023/03/15 03:10:21;;;;;;;2.75;2.38;;;10.30;58.60;;;;;;5076961;28;20035;-68
2023/03/15 03:12:52;;;;;;;2.78;2.50;;;10.30;58.60;;;;;;5095069;28;20358;-68
2023/03/15 03:15:18;;;;;;;3.28;2.60;;;10.30;58.70;;;;;;5094970;28;20032;-68
2023/03/15 03:17:43;;;;;;;2.80;2.60;;;10.30;58.70;;;;;;5077139;28;20101;-68
2023/03/15 03:20:12;;;;;;;2.70;2.50;;;10.30;58.70;;;;;;5095074;28;20406;-68
2023/03/15 03:22:43;;;;;;;2.88;2.42;;;10.30;58.70;;;;;;5077033;28;20431;-68
2023/03/15 03:25:10;;;;;;;2.80;2.60;;;10.30;58.60;;;;;;5076966;28;20357;-69
2023/03/15 03:27:35;;;;;;;2.95;2.67;;;10.30;58.70;;;;;;5076622;28;20028;-69
2023/03/15 03:30:07;;;;;;;2.97;2.40;;;10.30;58.70;;;;;;5094024;28;20362;-68
2023/03/15 03:32:33;;;;;;;2.92;2.63;;;10.30;58.70;;;;;;5094993;28;20024;-67
2023/03/15 03:34:59;;;;;;;3.05;2.45;;;10.30;58.70;;;;;;5094878;28;20048;-67
2023/03/15 03:37:25;;;;;;;3.35;2.55;;;10.20;58.60;;;;;;5076186;28;20119;-68
2023/03/15 03:39:50;;;;;;;2.35;2.15;;;10.20;58.60;;;;;;5094408;28;20028;-67
2023/03/15 03:42:16;;;;;;;3.22;2.70;;;10.20;58.70;;;;;;5094407;28;20077;-68
2023/03/15 03:44:42;;;;;;;2.60;2.40;;;10.30;58.70;;;;;;5094704;28;20052;-67
2023/03/15 03:47:08;;;;;;;3.00;2.60;;;10.20;58.60;;;;;;5094435;28;20111;-67
2023/03/15 03:49:33;;;;;;;3.17;2.60;;;10.20;58.60;;;;;;5094410;28;20362;-68
2023/03/15 03:52:00;;;;;;;3.33;2.85;;;10.20;58.60;;;;;;5093866;28;20028;-68
2023/03/15 03:54:26;;;;;;;2.67;2.38;;;10.20;58.70;;;;;;5075989;28;20024;-68
2023/03/15 03:56:52;;;;;;;3.08;2.45;;;10.20;58.70;;;;;;5094021;28;20376;-68
2023/03/15 03:59:18;;;;;;;3.53;2.80;;;10.20;58.60;;;;;;5076183;28;20028;-68
2023/03/15 04:01:43;;;;;;;2.78;2.40;;;10.20;58.60;;;;;;5093884;28;20028;-68
2023/03/15 04:04:12;;;;;;;3.00;2.70;;;10.20;58.60;;;;;;5076030;28;20027;-68
2023/03/15 04:06:44;;;;;;;3.10;2.53;;;10.20;58.70;;;;;;5094034;28;20461;-68
2023/03/15 04:09:15;;;;;;;2.50;2.30;;;10.20;58.70;;;;;;5093998;28;20024;-68
2023/03/15 04:11:42;;;;;;;3.05;2.55;;;10.20;58.60;;;;;;5093804;28;20369;-66
2023/03/15 04:14:12;;;;;;;2.97;2.45;;;10.20;58.70;;;;;;5093729;28;20441;-68
2023/03/15 04:16:38;;;;;;;3.00;2.70;;;10.20;58.70;;;;;;5075912;28;20032;-67
2023/03/15 04:19:04;;;;;;;3.05;2.60;;;10.20;58.70;;;;;;5093694;28;20469;-69
2023/03/15 04:21:30;;;;;;;2.97;2.60;;;10.20;58.70;;;;;;5075598;28;20097;-68
2023/03/15 04:24:00;;;;;;;3.22;2.83;;;10.20;58.70;;;;;;5093673;28;20027;-68
2023/03/15 04:26:30;;;;;;;3.08;2.70;;;10.30;58.80;;;;;;5075829;28;20457;-67
2023/03/15 04:28:57;;;;;;;3.22;2.67;;;10.30;58.70;;;;;;5093709;28;20043;-67
2023/03/15 04:31:25;;;;;;;3.08;2.45;;;10.30;58.70;;;;;;5093272;28;20382;-67
2023/03/15 04:33:53;;;;;;;2.78;2.55;;;10.30;58.70;;;;;;5092844;28;20052;-67
2023/03/15 04:36:19;;;;;;;2.80;2.60;;;10.30;58.70;;;;;;5092835;28;20089;-68
2023/03/15 04:38:47;;;;;;;2.72;2.50;;;10.30;58.70;;;;;;5092592;28;20020;-67
2023/03/15 04:41:17;;;;;;;3.08;2.75;;;10.30;58.70;;;;;;5093501;28;20119;-68
2023/03/15 04:43:43;;;;;;;3.28;2.65;;;10.30;58.60;;;;;;5075183;28;20035;-67
2023/03/15 04:46:10;;;;;;;3.05;2.65;;;10.30;58.60;;;;;;5075333;28;20072;-67
2023/03/15 04:48:35;;;;;;;3.15;2.60;;;10.30;58.60;;;;;;5093438;28;20474;-67
2023/03/15 04:51:01;;;;;;;3.05;2.50;;;10.40;58.60;;;;;;5075235;28;20027;-67
2023/03/15 04:53:27;;;;;;;3.20;2.75;;;10.40;58.60;;;;;;5075310;28;20404;-67
2023/03/15 04:55:53;;;;;;;3.03;2.72;;;10.40;58.60;;;;;;5093330;28;20034;-67
2023/03/15 04:58:19;;;;;;;3.25;2.70;;;10.40;58.50;;;;;;5090109;28;20025;-67
2023/03/15 05:00:45;;;;;;;3.08;2.58;;;10.40;58.50;;;;;;5074171;28;20492;-68
2023/03/15 05:03:10;;;;;;;3.92;3.10;;;10.40;58.50;;;;;;5096294;28;20051;-69
2023/03/15 05:05:36;;;;;;;4.13;3.38;;;10.50;58.60;;;;;;5097067;28;20107;-68
2023/03/15 05:08:02;;;;;;;4.55;3.35;;;10.50;58.60;;;;;;5079468;28;20029;-71
2023/03/15 05:10:31;;;;;;;4.60;3.20;;;10.50;58.60;;;;;;5097412;28;20032;-69
2023/03/15 05:12:57;;;;;;;3.80;2.83;;;10.60;58.70;;;;;;5097711;28;20103;-71
2023/03/15 05:15:23;;;;;;;3.70;2.92;;;10.60;58.80;;;;;;5097591;28;20051;-70
2023/03/15 05:17:49;;;;;;;3.70;3.17;;;10.60;58.80;;;;;;5097258;28;20031;-71
2023/03/15 05:20:15;;;;;;;4.00;3.03;;;10.60;58.80;;;;;;5097278;28;20064;-71
2023/03/15 05:22:41;;;;;;;3.95;3.10;;;10.70;58.80;;;;;;5097312;28;20089;-69
2023/03/15 05:25:09;;;;;;;3.92;3.10;;;10.70;58.80;;;;;;5078829;28;20063;-69
2023/03/15 05:27:35;;;;;;;4.28;3.17;;;10.70;58.70;;;;;;5079571;28;20031;-68
2023/03/15 05:30:02;;;;;;;3.38;2.85;;;10.80;58.70;;;;;;5079099;28;20028;-68
2023/03/15 05:32:28;;;;;;;4.10;3.20;;;10.80;58.70;;;;;;5078895;28;20039;-68
2023/03/15 05:34:54;;;;;;;3.65;2.88;;;10.90;58.70;;;;;;5097439;28;20452;-68
2023/03/15 05:37:21;;;;;;;3.95;2.80;;;10.90;58.70;;;;;;5115093;28;20026;-67
2023/03/15 05:39:47;;;;;;;4.18;2.97;;;10.90;58.60;;;;;;5096945;28;20034;-69
2023/03/15 05:42:14;;;;;;;4.13;3.20;;;10.90;58.50;;;;;;5097444;28;20380;-68
2023/03/15 05:44:39;;;;;;;3.63;2.90;;;10.90;58.50;;;;;;5117306;28;20077;-69
2023/03/15 05:47:05;;;;;;;3.10;2.72;;;11.00;58.50;;;;;;5098483;28;20074;-68
2023/03/15 05:49:31;;;;;;;3.75;3.03;;;11.00;58.50;;;;;;5098608;28;20032;-68
2023/03/15 05:51:56;;;;;;;4.13;3.08;;;11.00;58.50;;;;;;5099009;28;20032;-69
2023/03/15 05:54:22;;;;;;;3.60;2.90;;;11.10;58.40;;;;;;5098818;28;20031;-68
2023/03/15 05:56:48;;;;;;;3.50;2.80;;;11.10;58.40;;;;;;5117276;28;20077;-67
2023/03/15 05:59:13;;;;;;;4.57;3.28;;;11.10;58.40;;;;;;5116841;28;20039;-68
2023/03/15 06:01:39;;;;;;;4.40;3.08;;;11.10;58.40;;;;;;5117114;28;20112;-67
2023/03/15 06:04:05;;;;;;;3.80;3.05;;;11.10;58.40;;;;;;5116587;28;20032;-67
2023/03/15 06:06:30;;;;;;;3.30;3.00;;;11.10;58.30;;;;;;5116690;28;20028;-67
2023/03/15 06:08:56;;;;;;;3.97;2.97;;;11.10;58.30;;;;;;5116885;28;20032;-68
2023/03/15 06:11:21;;;;;;;5.00;3.42;;;11.20;58.40;;;;;;5098479;28;20118;-68
2023/03/15 06:13:47;;;;;;;3.95;3.17;;;11.20;58.30;;;;;;5115972;28;20028;-67
2023/03/15 06:16:13;;;;;;;3.28;2.80;;;11.20;58.30;;;;;;5116509;28;20032;-68
2023/03/15 06:18:38;;;;;;;3.70;2.97;;;11.30;58.30;;;;;;5116308;28;20443;-68
2023/03/15 06:21:04;;;;;;;3.65;2.90;;;11.30;58.20;;;;;;5116411;28;20032;-67
2023/03/15 06:23:30;;;;;;;4.18;2.97;;;11.30;58.20;;;;;;5116600;28;20027;-68
2023/03/15 06:25:55;;;;;;;3.75;2.97;;;11.30;58.20;;;;;;5116393;28;20075;-68
2023/03/15 06:28:21;;;;;;;4.10;3.00;;;11.30;58.20;;;;;;5098246;28;20410;-66
2023/03/15 06:30:46;;;;;;;3.13;2.83;;;11.30;58.20;;;;;;5098129;28;20046;-67
2023/03/15 06:33:12;;;;;;;3.35;2.70;;;11.40;58.20;;;;;;5112002;28;20392;-68
2023/03/15 06:35:38;;;;;;;3.53;2.65;;;11.40;58.10;;;;;;5096002;28;20449;-67
2023/03/15 06:38:03;;;;;;;3.38;2.90;;;11.40;58.10;;;;;;5096076;28;20023;-68
2023/03/15 06:40:30;;;;;;;3.20;2.90;;;11.40;58.10;;;;;;5077483;28;20028;-68
2023/03/15 06:42:56;;;;;;;3.78;2.83;;;11.40;58.10;;;;;;5077745;28;20030;-68
2023/03/15 06:45:21;;;;;;;3.05;2.75;;;11.40;58.70;;;;;;5077429;28;20028;-68
2023/03/15 06:47:47;;;;;;;3.50;2.78;;;11.40;58.00;;;;;;5077585;28;20020;-67
2023/03/15 06:50:13;;;;;;;3.30;2.80;;;11.40;58.00;;;;;;5078085;28;20462;-67
2023/03/15 06:52:38;;;;;;;3.55;3.00;;;11.40;58.00;;;;;;5078217;28;20024;-68
2023/03/15 06:55:04;;;;;;;3.75;3.10;;;11.50;58.10;;;;;;5095604;28;20039;-68
2023/03/15 06:57:30;;;;;;;3.80;2.97;;;11.50;58.10;;;;;;5095565;28;20063;-68
2023/03/15 06:59:56;;;;;;;3.60;2.92;;;11.50;58.00;;;;;;5095496;28;20459;-68
2023/03/15 07:02:21;;;;;;;2.95;2.65;;;11.50;58.00;;;;;;5095290;28;20028;-68
2023/03/15 07:04:48;;;;;;;3.28;2.88;;;11.50;57.90;;;;;;5095265;28;20024;-67
2023/03/15 07:07:14;;;;;;;3.80;3.13;;;11.50;58.00;;;;;;5095412;28;20457;-68
2023/03/15 07:09:40;;;;;;;3.53;2.80;;;11.60;57.90;;;;;;5095246;28;20024;-68
2023/03/15 07:12:06;;;;;;;3.10;2.70;;;11.60;57.90;;;;;;5095167;28;20020;-68
2023/03/15 07:14:35;;;;;;;4.07;2.80;;;11.60;57.80;;;;;;5095382;28;20469;-67
2023/03/15 07:17:01;;;;;;;3.13;2.80;;;11.70;57.80;;;;;;5095426;28;20374;-68
2023/03/15 07:19:26;;;;;;;4.00;3.10;;;11.70;57.80;;;;;;5095122;28;20032;-68
2023/03/15 07:21:52;;;;;;;3.00;2.70;;;11.80;57.80;;;;;;5076700;28;20040;-69
2023/03/15 07:24:18;;;;;;;4.15;3.05;;;11.80;57.70;;;;;;5094937;28;20027;-67
2023/03/15 07:26:43;;;;;;;3.20;2.70;;;11.80;57.70;;;;;;5094114;28;20484;-67
2023/03/15 07:29:09;;;;;;;3.50;2.75;;;11.90;57.70;;;;;;5094863;28;20442;-67
2023/03/15 07:31:35;;;;;;;3.53;3.00;;;11.90;57.60;;;;;;5094521;28;20028;-67
2023/03/15 07:34:01;;;;;;;3.70;2.70;;;12.00;57.60;;;;;;5094748;28;20044;-67
2023/03/15 07:36:26;;;;;;;3.28;2.92;;;12.00;57.60;;;;;;5094821;28;20386;-69
2023/03/15 07:38:52;;;;;;;2.75;2.53;;;12.00;57.50;;;;;;5076670;28;20385;-66
2023/03/15 07:41:18;;;;;;;2.97;2.35;;;12.00;57.50;;;;;;5076395;28;20035;-68
2023/03/15 07:43:43;;;;;;;2.90;2.60;;;12.10;57.50;;;;;;5094768;28;20120;-70
2023/03/15 07:46:09;;;;;;;3.95;2.80;;;12.10;57.40;;;;;;5076216;28;20051;-70
2023/03/15 07:48:35;;;;;;;4.30;3.33;;;12.10;57.40;;;;;;5076443;28;20020;-68
2023/03/15 07:51:01;;;;;;;4.03;2.83;;;12.10;57.30;;;;;;5094599;28;20030;-68
2023/03/15 07:53:27;;;;;;;3.63;2.85;;;12.20;57.30;;;;;;5094487;28;20461;-68
2023/03/15 07:55:53;;;;;;;3.42;2.88;;;12.20;57.30;;;;;;5076114;28;20476;-68
2023/03/15 07:58:18;;;;;;;3.55;3.13;;;12.20;57.30;;;;;;5076330;28;20056;-68
2023/03/15 08:00:44;;;;;;;4.05;3.00;;;12.20;57.30;;;;;;5094073;28;20526;-69
2023/03/15 08:03:10;;;;;;;3.33;2.55;;;12.20;57.30;;;;;;5076746;28;20144;-68
2023/03/15 08:05:35;;;;;;;3.28;2.80;;;12.20;57.20;;;;;;5094546;28;20046;-68
2023/03/15 08:08:01;;;;;;;3.10;2.70;;;12.20;57.20;;;;;;5094485;28;20027;-68
2023/03/15 08:10:26;;;;;;;3.25;2.78;;;12.30;57.30;;;;;;5076029;28;20407;-68
2023/03/15 08:12:52;;;;;;;2.80;2.40;;;12.20;57.20;;;;;;5076160;28;20578;-68
2023/03/15 08:15:18;;;;;;;3.13;2.50;;;12.30;57.20;;;;;;5093713;28;20023;-67
2023/03/15 08:17:46;;;;;;;2.88;2.55;;;12.30;57.20;;;;;;5075970;28;20025;-68
2023/03/15 08:20:18;;;;;;;3.15;2.60;;;12.30;57.20;;;;;;5093990;28;20598;-68
2023/03/15 08:22:46;;;;;;;3.10;2.53;;;12.30;57.20;;;;;;5075912;28;20043;-68
2023/03/15 08:25:14;;;;;;;3.13;2.47;;;12.40;57.20;;;;;;5094167;28;20100;-68
2023/03/15 08:27:41;;;;;;;3.25;2.58;;;12.40;57.10;;;;;;5093958;28;20030;-68
2023/03/15 08:30:11;;;;;;;3.47;2.90;;;12.50;57.10;;;;;;5094003;28;20028;-68
2023/03/15 08:32:38;;;;;;;3.15;2.80;;;12.60;57.10;;;;;;5076231;28;20097;-68
2023/03/15 08:35:04;;;;;;;3.33;2.83;;;12.60;56.90;;;;;;5095179;28;20143;-68
2023/03/15 08:37:30;;;;;;;3.38;2.70;;;12.70;56.90;;;;;;5113059;28;20028;-68
2023/03/15 08:39:59;;;;;;;3.25;2.60;;;12.70;56.80;;;;;;5095472;28;20023;-70
2023/03/15 08:42:26;;;;;;;3.15;2.83;;;12.80;56.70;;;;;;5113491;28;20488;-70
2023/03/15 08:44:52;;;;;;;2.85;2.45;;;12.90;56.70;;;;;;5113239;28;20028;-68
2023/03/15 08:47:18;;;;;;;2.90;2.58;;;12.90;56.60;;;;;;5113637;28;20053;-68
2023/03/15 08:49:44;;;;;;;3.08;2.55;;;13.00;56.60;;;;;;5114017;28;20032;-68
2023/03/15 08:52:10;;;;;;;3.55;3.00;;;13.00;56.50;;;;;;5095674;28;20043;-68
2023/03/15 08:54:35;;;;;;;3.40;2.83;;;13.00;56.40;;;;;;5095569;28;20028;-67
2023/03/15 08:57:01;;;;;;;3.42;2.80;;;13.00;56.40;;;;;;5095410;28;20387;-68
2023/03/15 08:59:27;;;;;;;2.90;2.40;;;13.00;56.40;;;;;;5095520;28;20109;-67
2023/03/15 09:01:52;;;;;;;3.13;2.60;;;13.00;56.40;;;;;;5095799;28;20112;-68
2023/03/15 09:04:18;;;;;;;3.15;2.70;;;12.90;56.40;;;;;;5113716;28;20024;-67
2023/03/15 09:06:44;;;;;;;3.08;2.78;;;12.90;56.40;;;;;;5113739;28;20501;-68
2023/03/15 09:09:10;;;;;;;3.28;2.72;;;12.90;56.40;;;;;;5113949;28;20039;-68
2023/03/15 09:11:35;;;;;;;3.08;2.67;;;12.90;56.50;;;;;;5113558;28;20030;-68
2023/03/15 09:14:01;;;;;;;3.00;2.70;;;12.90;56.50;;;;;;5113645;28;20425;-68
2023/03/15 09:16:27;;;;;;;3.10;2.70;;;12.90;56.50;;;;;;5095558;28;20024;-67
2023/03/15 09:18:53;;;;;;;3.63;2.70;;;12.90;56.50;;;;;;5113422;28;20034;-67
2023/03/15 09:21:19;;;;;;;2.90;2.60;;;12.90;56.50;;;;;;5095230;28;20400;-68
2023/03/15 09:23:44;;;;;;;3.20;2.90;;;12.90;56.50;;;;;;5095345;28;20024;-68
2023/03/15 09:26:10;;;;;;;3.65;2.83;;;12.90;56.50;;;;;;5113621;28;20084;-67
2023/03/15 09:28:35;;;;;;;3.00;2.70;;;12.90;56.50;;;;;;5114146;28;20369;-68
2023/03/15 09:31:05;;;;;;;3.08;2.65;;;12.90;56.40;;;;;;5113787;28;20423;-68
2023/03/15 09:33:33;;;;;;;3.17;2.83;;;12.90;56.40;;;;;;5113715;28;20419;-68
2023/03/15 09:35:58;;;;;;;3.47;2.55;;;12.90;56.50;;;;;;5113411;28;20123;-67
2023/03/15 09:38:25;;;;;;;2.78;2.42;;;12.80;56.50;;;;;;5113491;28;20055;-69
2023/03/15 09:40:56;;;;;;;2.92;2.60;;;12.90;56.50;;;;;;5113239;28;20457;-67
2023/03/15 09:43:42;;;;;;;3.10;2.80;;;12.80;57.10;;;;;;5113919;28;20505;-69
2023/03/15 09:46:29;;;;;;;2.85;2.55;;;12.90;56.50;;;;;;5095412;28;20102;-67
2023/03/15 09:49:08;;;;;;;3.78;2.70;;;12.90;56.40;;;;;;5114856;28;20015;-68
2023/03/15 09:52:09;;;;;;;3.40;2.80;;;13.00;56.50;;;;;;5117405;28;20049;-67
2023/03/15 09:54:42;;;;;;;3.08;2.47;;;13.00;56.40;;;;;;5087909;28;20027;-67
2023/03/15 09:57:16;;;;;;;3.30;2.70;;;13.10;56.40;;;;;;5115816;28;20077;-67
2023/03/15 09:59:46;;;;;;;2.80;2.40;;;13.00;56.30;;;;;;5116737;28;20031;-68
2023/03/15 10:02:22;;;;;;;2.40;2.20;;;13.00;56.20;;;;;;5116855;28;20491;-67
2023/03/15 10:05:10;;;;;;;2.60;2.38;;;13.00;56.30;;;;;;5117165;28;20057;-68
2023/03/15 10:07:36;;;;;;;2.67;2.47;;;13.00;56.30;;;;;;5116239;28;20036;-68
2023/03/15 10:10:03;;;;;;;3.15;2.60;;;13.10;56.30;;;;;;5116704;28;20034;-68
2023/03/15 10:12:41;;;;;;;3.17;2.65;;;13.10;56.30;;;;;;5117197;28;20126;-68
2023/03/15 10:15:19;;;;;;;3.13;2.70;;;13.10;56.30;;;;;;5098652;28;20451;-67
2023/03/15 10:18:26;;;;;;;2.42;2.22;;;13.20;56.20;;;;;;5116456;28;20055;-68
2023/03/15 10:21:14;;;;;;;2.65;2.45;;;13.20;56.00;;;;;;5105603;28;20051;-68
2023/03/15 10:23:48;;;;;;;3.00;2.67;;;13.20;56.00;;;;;;5116451;28;20027;-68
2023/03/15 10:26:18;;;;;;;2.70;2.50;;;13.20;56.10;;;;;;5116735;28;20164;-68
2023/03/15 10:28:44;;;;;;;2.67;2.47;;;13.20;56.10;;;;;;5098185;28;20027;-67
2023/03/15 10:31:17;;;;;;;3.00;2.70;;;13.20;56.10;;;;;;5116164;28;20496;-67
2023/03/15 10:33:44;;;;;;;3.95;2.50;;;13.10;56.00;;;;;;5116642;28;20054;-67
2023/03/15 10:36:16;;;;;;;3.40;2.70;;;13.10;56.10;;;;;;5098049;28;20031;-67
2023/03/15 10:38:42;;;;;;;3.00;2.40;;;13.00;56.10;;;;;;5098050;28;20024;-67
2023/03/15 10:41:14;;;;;;;3.40;2.88;;;13.00;56.10;;;;;;5115746;28;20038;-67
2023/03/15 10:43:40;;;;;;;3.38;2.58;;;13.00;56.20;;;;;;5116359;28;20059;-68
2023/03/15 10:46:21;;;;;;;3.10;2.50;;;12.90;56.20;;;;;;5097909;28;20034;-68
2023/03/15 10:48:58;;;;;;;3.28;2.50;;;12.90;56.20;;;;;;5097848;28;20032;-68
2023/03/15 10:51:30;;;;;;;3.38;2.45;;;12.90;56.30;;;;;;5097298;28;20028;-68
2023/03/15 10:53:55;;;;;;;3.35;2.70;;;12.90;56.40;;;;;;5115851;28;20059;-68
2023/03/15 10:56:25;;;;;;;2.55;2.35;;;12.90;56.40;;;;;;5115747;28;20043;-67
2023/03/15 10:58:53;;;;;;;2.65;2.45;;;12.90;56.40;;;;;;5097781;28;20027;-67
2023/03/15 11:01:26;;;;;;;2.78;2.58;;;12.80;56.40;;;;;;5097389;28;20024;-68
2023/03/15 11:04:20;;;;;;;3.00;2.70;;;12.90;56.40;;;;;;5097414;28;20504;-69
2023/03/15 11:07:01;;;;;;;3.08;2.60;;;12.90;56.50;;;;;;5115976;28;20031;-68
2023/03/15 11:09:53;;;;;;;2.45;2.22;;;12.90;56.40;;;;;;5115597;28;20019;-68
2023/03/15 11:12:27;;;;;;;2.72;2.45;;;12.90;56.40;;;;;;5097298;28;20073;-67
2023/03/15 11:14:58;;;;;;;2.58;2.38;;;12.90;56.40;;;;;;5115923;28;20042;-67
2023/03/15 11:17:29;;;;;;;3.33;2.50;;;12.90;56.30;;;;;;5115571;28;20030;-67
2023/03/15 11:20:12;;;;;;;3.13;2.60;;;12.90;56.30;;;;;;5115556;28;20111;-67
2023/03/15 11:22:41;;;;;;;2.60;2.40;;;12.90;56.40;;;;;;5115129;28;20032;-68
2023/03/15 11:25:14;;;;;;;2.75;2.53;;;12.90;56.40;;;;;;5097663;28;20386;-68
2023/03/15 11:27:45;;;;;;;2.60;2.40;;;12.80;56.30;;;;;;5115717;28;20028;-66
2023/03/15 11:30:20;;;;;;;2.83;2.30;;;12.80;56.40;;;;;;5114064;28;20077;-68
2023/03/15 11:32:46;;;;;;;;;;;12.80;56.50;;;;;;5115647;28;20073;-68
2023/03/15 11:35:16;;;;;;;2.78;2.42;;;12.70;56.40;;;;;;5114947;28;19919;-67
2023/03/15 11:38:11;;;;;;;2.92;2.30;;;12.70;56.50;;;;;;5097902;28;20052;-67
2023/03/15 11:40:46;;;;;;;2.88;2.50;;;12.60;56.50;;;;;;5113564;28;20046;-67
2023/03/15 11:43:48;;;;;;;2.97;2.50;;;12.60;56.60;;;;;;5096737;28;20035;-68
2023/03/15 11:46:30;;;;;;;2.50;2.30;;;12.60;56.60;;;;;;5097479;28;20035;-67
2023/03/15 11:49:39;;;;;;;2.45;2.22;;;12.60;56.60;;;;;;5096964;28;20478;-68
2023/03/15 11:52:05;;;;;;;2.50;2.30;;;12.60;56.70;;;;;;5069304;28;20456;-68
2023/03/15 11:54:31;;;;;;;2.67;2.28;;;12.60;56.70;;;;;;5114858;28;20381;-67
2023/03/15 11:57:02;;;;;;;2.78;2.58;;;12.50;56.70;;;;;;5114847;28;20028;-68
2023/03/15 11:59:36;;;;;;;2.47;2.28;;;12.50;56.70;;;;;;5096245;28;20430;-68
2023/03/15 12:02:14;;;;;;;;;;;12.60;56.80;;;;;;5097019;28;20020;-67
2023/03/15 12:04:48;;;;;;;2.40;2.20;;;12.50;56.80;;;;;;5114510;28;20329;-68
2023/03/15 12:07:22;;;;;;;2.22;2.03;;;12.60;56.80;;;;;;5097068;28;20026;-68
2023/03/15 12:09:57;;;;;;;2.60;2.33;;;12.60;56.80;;;;;;5096452;28;20035;-67
2023/03/15 12:12:22;;;;;;;;;;;12.60;56.80;;;;;;5096242;28;20031;-68
2023/03/15 12:15:18;;;;;;;2.28;2.08;;;12.50;56.80;;;;;;5095897;28;19904;-69
2023/03/15 12:18:05;;;;;;;2.38;2.17;;;12.60;56.80;;;;;;5114561;28;20023;-68
2023/03/15 12:20:41;;;;;;;2.75;2.35;;;12.50;56.80;;;;;;5114096;28;20085;-67
2023/03/15 12:23:13;;;;;;;2.30;2.10;;;12.50;56.80;;;;;;5095927;28;20031;-69
2023/03/15 12:25:45;;;;;;;2.40;2.20;;;12.50;56.90;;;;;;5096811;28;20020;-68
2023/03/15 12:28:37;;;;;;;2.50;2.30;;;12.50;56.90;;;;;;5096626;28;20030;-68
2023/03/15 12:31:12;;;;;;;2.75;2.45;;;12.50;56.90;;;;;;5114265;28;20058;-68
2023/03/15 12:33:50;;;;;;;2.65;2.45;;;12.50;57.00;;;;;;5114199;28;20078;-68
2023/03/15 12:36:40;;;;;;;2.70;2.50;;;12.40;57.00;;;;;;5096268;28;20091;-67
2023/03/15 12:39:29;;;;;;;2.63;2.20;;;12.40;57.00;;;;;;5113905;28;20024;-68
2023/03/15 12:41:54;;;;;;;2.70;2.50;;;12.40;57.10;;;;;;5071966;28;20048;-68
2023/03/15 12:44:32;;;;;;;2.40;2.20;;;12.40;57.10;;;;;;5114384;28;20032;-68
2023/03/15 12:46:59;;;;;;;2.60;2.40;;;12.50;57.10;;;;;;5113825;28;20022;-67
2023/03/15 12:49:38;;;;;;;2.50;2.30;;;12.40;57.10;;;;;;5096051;28;20031;-68
2023/03/15 12:52:10;;;;;;;2.50;2.30;;;12.50;57.10;;;;;;5114086;28;20446;-68
2023/03/15 12:55:03;;;;;;;2.40;2.20;;;12.50;57.10;;;;;;5113702;28;20028;-67
2023/03/15 12:57:36;;;;;;;2.53;2.10;;;12.50;57.10;;;;;;5105778;28;20046;-68
2023/03/15 13:00:14;;;;;;;2.38;2.17;;;12.50;57.10;;;;;;5114073;28;20039;-68